JOHN F KENNEDY INTL

KJFK (JFK)
New York, New York
Towered

Vatsim Metar:
KJFK 270351Z 24013KT 10SM CLR 19/11 A2997 RMK AO2 SLP150 T01940111 $

No ATC Online

Traffic

Inbound:
Ident
Type
Name
ETA
Phase
CJT1245
B752
Thierry Jabrane CYUL
Taxiing In
DAL4021
B762
Brent Dekker KCLE
04:44 Z
Cruse
AAL1983
A21N
Helder SBSP
05:37 Z
Cruse
SIA24
A359
Mike Lim WSSS
09:37 Z
Cruse
SIA22
A359
1299085
18:56 Z
Cruse

Outbound:
None